Time;durP1;ratioP1;P1;durP2;ratioP2;P2;SDS_P1;SDS_P2;PMS_P1;PMS_P2;Temp;Humidity;BMP_temperature;BMP_pressure;BME280_temperature;BME280_humidity;BME280_pressure;Samples;Min_cycle;Max_cycle;Signal;HPM_P1;HPM_P2
2023/02/20 00:00:28;;;;;;;3.97;1.67;;;4.20;99.90;;;;;;5031909;28;20025;-60
2023/02/20 00:02:54;;;;;;;2.67;1.42;;;4.20;99.90;;;;;;5026449;28;20112;-60
2023/02/20 00:05:20;;;;;;;6.25;1.17;;;4.20;99.90;;;;;;5031389;28;20029;-60
2023/02/20 00:07:45;;;;;;;2.92;1.27;;;4.30;99.90;;;;;;5029705;28;20033;-60
2023/02/20 00:10:12;;;;;;;4.22;1.55;;;4.30;99.90;;;;;;5028849;28;20064;-61
2023/02/20 00:12:38;;;;;;;3.55;1.23;;;4.30;99.90;;;;;;5031013;28;20112;-61
2023/02/20 00:15:04;;;;;;;6.13;1.80;;;4.30;99.90;;;;;;5032184;28;20208;-60
2023/02/20 00:17:30;;;;;;;5.40;2.00;;;4.30;99.90;;;;;;5030671;28;20029;-61
2023/02/20 00:19:55;;;;;;;4.55;1.88;;;4.20;99.90;;;;;;5032436;28;20104;-60
2023/02/20 00:22:22;;;;;;;3.40;1.98;;;4.30;99.90;;;;;;5032532;28;20025;-61
2023/02/20 00:24:48;;;;;;;5.68;2.00;;;4.30;99.90;;;;;;5029118;28;20026;-58
2023/02/20 00:27:14;;;;;;;3.70;1.77;;;4.30;99.90;;;;;;5032175;28;20083;-61
2023/02/20 00:29:39;;;;;;;2.25;1.63;;;4.30;99.90;;;;;;5029187;28;20024;-61
2023/02/20 00:32:05;;;;;;;5.32;1.35;;;4.30;99.90;;;;;;5032269;28;20026;-61
2023/02/20 00:34:31;;;;;;;3.63;1.80;;;4.30;99.90;;;;;;5032324;28;20463;-61
2023/02/20 00:36:56;;;;;;;5.53;1.92;;;4.30;99.90;;;;;;5031632;28;20021;-61
2023/02/20 00:39:22;;;;;;;3.78;1.70;;;4.30;99.90;;;;;;5034058;28;20116;-62
2023/02/20 00:41:48;;;;;;;6.78;1.73;;;4.20;99.90;;;;;;5032372;28;20048;-61
2023/02/20 00:44:14;;;;;;;5.25;1.80;;;4.20;99.90;;;;;;5031889;28;20025;-62
2023/02/20 00:46:39;;;;;;;3.53;1.77;;;4.20;99.90;;;;;;5033348;28;20448;-61
2023/02/20 00:49:05;;;;;;;2.20;1.42;;;4.20;99.90;;;;;;5036054;28;20040;-60
2023/02/20 00:51:32;;;;;;;7.30;2.17;;;4.20;99.90;;;;;;5033509;28;20511;-61
2023/02/20 00:53:58;;;;;;;3.55;1.70;;;4.20;99.90;;;;;;5035317;28;20403;-61
2023/02/20 00:56:23;;;;;;;4.15;2.42;;;4.20;99.90;;;;;;5034284;28;20116;-61
2023/02/20 00:58:49;;;;;;;1.77;1.55;;;4.30;99.90;;;;;;5035039;28;20491;-61
2023/02/20 01:01:15;;;;;;;7.47;2.13;;;4.30;99.90;;;;;;5043695;28;20037;-61
2023/02/20 01:03:41;;;;;;;4.70;2.00;;;4.30;99.90;;;;;;5039673;28;20442;-61
2023/02/20 01:06:07;;;;;;;4.15;2.05;;;4.30;99.90;;;;;;5041731;28;20083;-62
2023/02/20 01:08:33;;;;;;;4.93;1.67;;;4.30;99.90;;;;;;5041458;28;20045;-60
2023/02/20 01:10:58;;;;;;;2.35;1.52;;;4.40;99.90;;;;;;5042894;28;20040;-58
2023/02/20 01:13:25;;;;;;;2.80;1.70;;;4.40;99.90;;;;;;5040735;28;20039;-61
2023/02/20 01:15:50;;;;;;;6.95;1.85;;;4.40;99.90;;;;;;5032076;28;20418;-62
2023/02/20 01:18:16;;;;;;;3.67;1.73;;;4.40;99.90;;;;;;5041663;28;20033;-62
2023/02/20 01:20:42;;;;;;;4.78;1.98;;;4.40;99.90;;;;;;5041914;28;20018;-61
2023/02/20 01:23:07;;;;;;;3.55;1.92;;;4.40;99.90;;;;;;5042809;28;20122;-61
2023/02/20 01:25:33;;;;;;;6.10;2.00;;;4.50;99.90;;;;;;5039512;28;20179;-60
2023/02/20 01:27:58;;;;;;;5.97;2.15;;;4.50;99.90;;;;;;5043182;28;20017;-60
2023/02/20 01:30:24;;;;;;;7.68;2.30;;;4.50;99.90;;;;;;5037868;28;20040;-61
2023/02/20 01:32:50;;;;;;;2.55;1.95;;;4.60;99.90;;;;;;5033462;28;20032;-60
2023/02/20 01:35:16;;;;;;;5.80;2.20;;;4.60;99.90;;;;;;5041522;28;20082;-62
2023/02/20 01:37:42;;;;;;;3.65;1.95;;;4.60;99.90;;;;;;5040239;28;20029;-61
2023/02/20 01:40:15;;;;;;;2.30;1.65;;;4.60;99.90;;;;;;5042370;28;20395;-61
2023/02/20 01:42:40;;;;;;;3.53;1.50;;;4.60;99.90;;;;;;5039985;28;20025;-61
2023/02/20 01:45:26;;;;;;;2.75;2.03;;;4.60;99.90;;;;;;5035932;28;20029;-61
2023/02/20 01:47:57;;;;;;;3.22;1.70;;;4.70;99.90;;;;;;5031078;28;20357;-61
2023/02/20 01:50:28;;;;;;;5.53;2.22;;;4.70;99.90;;;;;;5039760;28;20020;-61
2023/02/20 01:52:57;;;;;;;2.90;1.90;;;4.70;99.90;;;;;;5041436;28;20532;-61
2023/02/20 01:55:37;;;;;;;3.50;2.20;;;4.70;99.90;;;;;;5038084;28;20347;-61
2023/02/20 01:58:13;;;;;;;5.60;2.33;;;4.70;99.90;;;;;;5034156;28;20037;-60
2023/02/20 02:00:38;;;;;;;6.65;2.17;;;4.70;99.90;;;;;;5036937;28;20022;-62
2023/02/20 02:03:11;;;;;;;2.83;2.15;;;4.70;99.90;;;;;;5039873;28;20364;-61
2023/02/20 02:05:42;;;;;;;3.58;2.42;;;4.70;99.90;;;;;;5039094;28;20029;-60
2023/02/20 02:08:10;;;;;;;6.18;2.53;;;4.80;99.90;;;;;;5040520;28;20114;-58
2023/02/20 02:10:44;;;;;;;4.75;2.67;;;4.80;99.90;;;;;;5038191;28;20071;-61
2023/02/20 02:13:10;;;;;;;2.95;1.80;;;4.80;99.90;;;;;;5041694;28;20494;-61
2023/02/20 02:15:35;;;;;;;3.25;2.38;;;4.80;99.90;;;;;;5041057;28;20025;-61
2023/02/20 02:18:04;;;;;;;4.15;2.53;;;4.80;99.90;;;;;;5041470;28;20590;-61
2023/02/20 02:20:53;;;;;;;6.20;2.65;;;4.90;99.90;;;;;;5035256;28;20453;-61
2023/02/20 02:23:40;;;;;;;4.65;2.72;;;4.90;99.90;;;;;;5032432;28;20025;-61
2023/02/20 02:26:29;;;;;;;5.93;2.63;;;5.00;99.90;;;;;;5031419;28;20029;-61
2023/02/20 02:29:37;;;;;;;4.75;3.13;;;5.00;99.90;;;;;;5034736;28;20029;-61
2023/02/20 02:32:16;;;;;;;6.22;2.33;;;5.00;99.90;;;;;;5030844;28;20036;-61
2023/02/20 02:35:00;;;;;;;3.35;2.70;;;5.00;99.90;;;;;;5044084;28;20040;-61
2023/02/20 02:37:39;;;;;;;4.30;2.75;;;5.10;99.90;;;;;;5041098;28;20029;-61
2023/02/20 02:40:16;;;;;;;6.00;2.90;;;5.10;99.90;;;;;;5035741;28;20021;-62
2023/02/20 02:43:03;;;;;;;5.93;3.70;;;5.10;99.90;;;;;;5037606;28;20086;-60
2023/02/20 02:45:37;;;;;;;5.85;3.13;;;5.10;99.90;;;;;;5044712;28;20032;-61
2023/02/20 02:48:18;;;;;;;4.95;3.25;;;5.10;99.90;;;;;;5042573;28;20440;-60
2023/02/20 02:50:46;;;;;;;5.00;2.90;;;5.20;99.90;;;;;;5038553;28;20040;-61
2023/02/20 02:53:13;;;;;;;5.35;2.78;;;5.10;99.90;;;;;;5043331;28;20024;-61
2023/02/20 02:55:38;;;;;;;5.85;3.47;;;5.10;99.90;;;;;;5040188;28;20034;-61
2023/02/20 02:58:04;;;;;;;5.55;3.55;;;5.10;99.90;;;;;;5042310;28;20476;-61
2023/02/20 03:00:54;;;;;;;4.70;3.42;;;5.00;99.90;;;;;;5036864;28;20033;-61
2023/02/20 03:03:33;;;;;;;6.32;4.43;;;5.10;99.90;;;;;;5045853;28;20541;-61
2023/02/20 03:06:10;;;;;;;4.55;3.28;;;5.10;99.90;;;;;;5029983;28;20436;-60
2023/02/20 03:08:40;;;;;;;5.82;4.00;;;5.10;99.90;;;;;;5038365;28;20443;-61
2023/02/20 03:11:08;;;;;;;6.18;3.95;;;5.10;99.90;;;;;;5040864;28;20426;-61
2023/02/20 03:17:13;;;;;;;8.25;3.53;;;5.10;99.90;;;;;;5042724;28;20076;-62
2023/02/20 03:19:43;;;;;;;6.10;4.30;;;5.10;99.90;;;;;;5036637;28;20439;-59
2023/02/20 03:22:17;;;;;;;8.45;4.88;;;5.10;99.90;;;;;;5043013;28;20143;-61
2023/02/20 03:24:54;;;;;;;5.07;3.90;;;5.10;99.90;;;;;;5036022;28;20403;-61
2023/02/20 03:27:43;;;;;;;8.48;4.85;;;5.10;99.90;;;;;;5037424;28;20376;-61
2023/02/20 03:30:15;;;;;;;7.13;4.32;;;5.20;99.90;;;;;;5033959;28;20466;-61
2023/02/20 03:43:48;;;;;;;6.35;4.72;;;5.30;99.90;;;;;;5041995;28;20036;-61
2023/02/20 03:46:21;;;;;;;5.93;4.50;;;5.30;99.90;;;;;;5037071;28;20026;-61
2023/02/20 03:48:55;;;;;;;6.53;4.35;;;5.30;99.90;;;;;;5045881;28;20021;-61
2023/02/20 03:51:23;;;;;;;7.03;4.85;;;5.30;99.90;;;;;;5039156;28;20037;-61
2023/02/20 03:53:48;;;;;;;7.28;4.63;;;5.30;99.90;;;;;;5040262;28;20028;-61
2023/02/20 03:56:30;;;;;;;5.82;4.40;;;5.30;99.90;;;;;;5037904;28;20392;-61
2023/02/20 03:59:13;;;;;;;8.55;5.28;;;5.40;99.90;;;;;;5030738;28;20017;-61
2023/02/20 04:01:42;;;;;;;7.95;4.30;;;5.40;99.90;;;;;;5038478;28;20029;-61
2023/02/20 04:04:15;;;;;;;6.25;4.85;;;5.40;99.90;;;;;;5040200;28;20055;-61
2023/02/20 04:06:42;;;;;;;10.63;5.43;;;5.40;99.90;;;;;;5037908;28;20029;-62
2023/02/20 04:09:16;;;;;;;8.68;5.13;;;5.40;99.90;;;;;;5040326;28;20033;-60
2023/02/20 04:11:51;;;;;;;7.43;4.40;;;5.40;99.90;;;;;;5044564;28;20038;-59
2023/02/20 04:14:19;;;;;;;6.78;5.38;;;5.40;99.90;;;;;;5045693;28;20491;-61
2023/02/20 04:16:50;;;;;;;6.90;5.00;;;5.40;99.90;;;;;;5046209;28;20037;-61
2023/02/20 04:19:15;;;;;;;9.57;5.20;;;5.40;99.90;;;;;;5048621;28;20032;-61
2023/02/20 04:22:03;;;;;;;6.65;4.60;;;5.30;99.90;;;;;;5062457;28;20030;-61
2023/02/20 04:24:35;;;;;;;7.18;5.65;;;5.30;99.90;;;;;;5036570;28;20439;-61
2023/02/20 04:27:02;;;;;;;6.88;4.93;;;5.30;99.90;;;;;;5040972;28;20033;-61
2023/02/20 04:29:28;;;;;;;7.70;5.32;;;5.30;99.90;;;;;;5041003;28;20104;-61
2023/02/20 04:31:53;;;;;;;7.47;5.28;;;5.30;99.90;;;;;;5037478;28;20113;-62
2023/02/20 04:34:19;;;;;;;7.53;5.55;;;5.30;99.90;;;;;;5037526;28;20557;-61
2023/02/20 04:36:45;;;;;;;6.72;5.57;;;5.30;99.90;;;;;;5040519;28;20037;-60
2023/02/20 04:39:10;;;;;;;7.78;5.25;;;5.30;99.90;;;;;;5045799;28;20397;-60
2023/02/20 04:41:36;;;;;;;8.63;5.93;;;5.30;99.90;;;;;;5041893;28;20037;-59
2023/02/20 04:46:45;;;;;;;9.98;6.28;;;5.20;99.90;;;;;;5043368;28;20039;-60
2023/02/20 04:49:11;;;;;;;8.65;6.07;;;5.20;99.90;;;;;;5048984;28;20045;-61
2023/02/20 04:51:36;;;;;;;10.50;6.32;;;5.30;99.90;;;;;;5041820;28;20025;-61
2023/02/20 04:54:02;;;;;;;10.40;6.15;;;5.30;99.90;;;;;;5043770;28;20478;-60
2023/02/20 04:56:27;;;;;;;8.77;6.60;;;5.30;99.90;;;;;;5041268;28;20025;-60
2023/02/20 04:58:53;;;;;;;8.70;6.10;;;5.30;99.90;;;;;;5039660;28;20105;-61
2023/02/20 05:01:18;;;;;;;10.35;5.68;;;5.30;99.90;;;;;;5037463;28;20029;-61
2023/02/20 05:03:44;;;;;;;13.00;6.68;;;5.30;99.90;;;;;;5029508;28;20033;-61
2023/02/20 05:06:09;;;;;;;9.98;6.93;;;5.40;99.90;;;;;;5037804;28;20033;-60
2023/02/20 05:08:35;;;;;;;9.00;6.47;;;5.40;99.90;;;;;;5041509;28;20030;-61
2023/02/20 05:11:01;;;;;;;11.75;7.65;;;5.40;99.90;;;;;;5041429;28;20032;-60
2023/02/20 05:13:26;;;;;;;8.43;6.88;;;5.40;99.90;;;;;;5041573;28;20033;-62
2023/02/20 05:15:52;;;;;;;9.13;7.32;;;5.40;99.90;;;;;;5043184;28;20656;-60
2023/02/20 05:18:28;;;;;;;11.38;7.60;;;5.40;99.90;;;;;;5041541;28;20025;-61
2023/02/20 05:23:37;;;;;;;10.15;7.10;;;5.40;99.90;;;;;;5041418;28;20159;-60
2023/02/20 05:26:10;;;;;;;10.35;7.18;;;5.40;99.90;;;;;;5036986;28;20112;-61
2023/02/20 05:28:38;;;;;;;16.33;8.25;;;5.40;99.90;;;;;;5033959;28;20812;-59
2023/02/20 05:31:04;;;;;;;9.38;7.22;;;5.40;99.90;;;;;;5037383;28;20029;-61
2023/02/20 05:33:30;;;;;;;9.20;7.25;;;5.40;99.90;;;;;;5040285;28;20381;-62
2023/02/20 05:35:55;;;;;;;12.15;8.80;;;5.40;99.90;;;;;;5039046;28;20033;-57
2023/02/20 05:38:21;;;;;;;13.48;8.48;;;5.50;99.90;;;;;;5045336;28;20032;-59
2023/02/20 05:40:46;;;;;;;13.70;8.95;;;5.50;99.90;;;;;;5039050;28;20025;-59
2023/02/20 05:43:12;;;;;;;12.10;8.82;;;5.50;99.90;;;;;;5044717;28;20033;-61
2023/02/20 05:45:37;;;;;;;12.95;8.85;;;5.60;99.90;;;;;;5039436;28;20029;-61
2023/02/20 05:48:03;;;;;;;13.52;9.18;;;5.70;99.90;;;;;;5043592;28;20039;-61
2023/02/20 05:50:29;;;;;;;11.90;8.82;;;5.60;99.90;;;;;;5042240;28;20044;-61
2023/02/20 05:52:54;;;;;;;13.20;8.65;;;5.60;99.90;;;;;;5039541;28;20468;-57
2023/02/20 05:55:20;;;;;;;13.20;9.48;;;5.70;99.90;;;;;;5044940;28;20027;-61
2023/02/20 05:57:45;;;;;;;13.75;9.20;;;5.70;99.90;;;;;;5039571;28;20491;-60
2023/02/20 06:00:12;;;;;;;13.65;8.43;;;5.60;99.90;;;;;;5043034;28;20376;-61
2023/02/20 06:02:38;;;;;;;12.73;9.05;;;5.60;99.90;;;;;;5038678;28;20021;-57
2023/02/20 06:05:05;;;;;;;13.25;9.18;;;5.70;99.90;;;;;;5036688;28;20029;-59
2023/02/20 06:07:30;;;;;;;16.90;9.75;;;5.70;99.90;;;;;;5035114;28;20017;-58
2023/02/20 06:09:56;;;;;;;13.07;9.80;;;5.70;99.90;;;;;;5037365;28;20445;-60
2023/02/20 06:12:23;;;;;;;14.13;10.23;;;5.70;99.90;;;;;;5038698;28;20030;-58
2023/02/20 06:14:49;;;;;;;11.02;8.27;;;5.70;99.90;;;;;;5044426;28;20054;-60
2023/02/20 06:17:14;;;;;;;13.20;9.32;;;5.70;99.90;;;;;;5038306;28;20022;-60
2023/02/20 06:19:40;;;;;;;13.75;9.90;;;5.70;99.90;;;;;;5035099;28;20107;-60
2023/02/20 06:22:05;;;;;;;12.10;9.40;;;5.70;99.90;;;;;;5042711;28;20155;-61
2023/02/20 06:24:31;;;;;;;13.85;10.02;;;5.80;99.90;;;;;;5038915;28;20048;-61
2023/02/20 06:26:57;;;;;;;12.27;10.05;;;5.70;99.90;;;;;;5040733;28;20506;-60
2023/02/20 06:29:23;;;;;;;11.32;9.55;;;5.80;99.90;;;;;;5038333;28;20021;-60
2023/02/20 06:31:48;;;;;;;15.27;10.50;;;5.80;99.90;;;;;;5041080;28;20395;-60
2023/02/20 06:34:15;;;;;;;14.52;9.77;;;5.80;99.90;;;;;;5037670;28;20025;-61
2023/02/20 06:36:42;;;;;;;14.32;9.98;;;5.90;99.90;;;;;;5035927;28;20438;-60
2023/02/20 06:39:09;;;;;;;20.63;11.48;;;6.00;99.90;;;;;;5041438;28;20399;-59
2023/02/20 06:41:35;;;;;;;13.95;10.82;;;6.00;99.90;;;;;;5034634;28;20025;-60
2023/02/20 06:44:00;;;;;;;13.32;9.52;;;6.00;99.90;;;;;;5039856;28;20154;-61
2023/02/20 06:46:26;;;;;;;18.30;10.23;;;6.00;99.90;;;;;;5034350;28;20025;-62
2023/02/20 06:48:55;;;;;;;15.35;11.10;;;6.00;99.90;;;;;;5043467;28;20018;-61
2023/02/20 06:51:23;;;;;;;16.55;10.05;;;6.00;99.90;;;;;;5033968;28;20036;-62
2023/02/20 06:53:49;;;;;;;16.35;9.88;;;6.00;99.90;;;;;;5040734;28;20025;-60
2023/02/20 06:56:19;;;;;;;13.13;9.80;;;6.00;99.90;;;;;;5039565;28;20387;-61
2023/02/20 06:58:49;;;;;;;16.42;10.40;;;6.00;99.90;;;;;;5040594;28;20017;-59
2023/02/20 07:01:19;;;;;;;18.55;10.90;;;6.10;99.90;;;;;;5040725;28;20057;-61
2023/02/20 07:03:47;;;;;;;15.15;10.57;;;6.10;99.90;;;;;;5040520;28;20048;-61
2023/02/20 07:06:14;;;;;;;13.15;10.05;;;6.10;99.90;;;;;;5042613;28;20021;-59
2023/02/20 07:08:39;;;;;;;13.07;10.52;;;6.20;99.90;;;;;;5040283;28;20472;-56
2023/02/20 07:11:05;;;;;;;17.63;11.38;;;6.20;99.90;;;;;;5040858;28;20127;-60
2023/02/20 07:13:30;;;;;;;18.58;12.88;;;6.30;99.90;;;;;;5040648;28;20060;-59
2023/02/20 07:15:56;;;;;;;25.15;14.82;;;6.30;99.90;;;;;;5041216;28;20017;-60
2023/02/20 07:18:22;;;;;;;22.40;12.63;;;6.30;99.90;;;;;;5041240;28;20025;-60
2023/02/20 07:20:52;;;;;;;16.55;12.10;;;6.40;99.90;;;;;;5038732;28;20025;-61
2023/02/20 07:23:18;;;;;;;17.45;13.40;;;6.40;99.90;;;;;;5039616;28;20567;-61
2023/02/20 07:25:44;;;;;;;20.80;12.90;;;6.40;99.90;;;;;;5040177;28;20108;-60
2023/02/20 07:28:09;;;;;;;20.33;13.00;;;6.40;99.90;;;;;;5039782;28;20032;-61
2023/02/20 07:30:35;;;;;;;15.38;11.65;;;6.40;99.90;;;;;;5039140;28;20071;-60
2023/02/20 07:33:01;;;;;;;21.20;13.38;;;6.40;99.90;;;;;;5038941;28;20108;-59
2023/02/20 07:35:26;;;;;;;18.48;12.93;;;6.50;99.90;;;;;;5040524;28;20559;-60
2023/02/20 07:37:52;;;;;;;17.95;13.90;;;6.50;99.90;;;;;;5039257;28;20082;-59
2023/02/20 07:40:18;;;;;;;18.17;13.35;;;6.60;99.90;;;;;;5041063;28;20053;-59
2023/02/20 07:42:43;;;;;;;20.23;14.05;;;6.50;99.90;;;;;;5039535;28;20554;-61
2023/02/20 07:45:10;;;;;;;23.65;14.57;;;6.50;99.90;;;;;;5043320;28;20029;-57
2023/02/20 07:47:35;;;;;;;20.42;13.63;;;6.60;99.90;;;;;;5044637;28;20025;-60
2023/02/20 07:50:01;;;;;;;20.17;13.70;;;6.60;99.90;;;;;;5044732;28;20091;-60
2023/02/20 07:52:26;;;;;;;18.17;13.65;;;6.70;99.90;;;;;;5044258;28;20028;-61
2023/02/20 07:54:52;;;;;;;22.65;14.30;;;6.70;99.90;;;;;;5043112;28;20060;-57
2023/02/20 07:57:18;;;;;;;22.70;14.57;;;6.70;99.90;;;;;;5044910;28;20029;-61
2023/02/20 07:59:43;;;;;;;18.85;14.00;;;6.70;99.90;;;;;;5043191;28;20028;-59
2023/02/20 08:02:09;;;;;;;22.40;14.90;;;6.70;99.90;;;;;;5043458;28;20040;-61
2023/02/20 08:04:34;;;;;;;23.35;14.48;;;6.70;99.90;;;;;;5043833;28;20021;-61
2023/02/20 08:07:00;;;;;;;20.98;14.38;;;6.70;99.90;;;;;;5044631;28;20032;-59
2023/02/20 08:09:25;;;;;;;20.15;14.77;;;6.70;99.90;;;;;;5042906;28;20025;-61
2023/02/20 08:11:51;;;;;;;24.20;14.98;;;6.80;99.90;;;;;;5041169;28;20030;-61
2023/02/20 08:14:17;;;;;;;24.75;15.05;;;6.80;99.90;;;;;;5047797;28;20029;-60
2023/02/20 08:16:42;;;;;;;24.60;15.48;;;6.80;99.90;;;;;;5040620;28;20426;-61
2023/02/20 08:19:08;;;;;;;22.00;15.05;;;6.80;99.90;;;;;;5040667;28;20021;-60
2023/02/20 08:21:33;;;;;;;22.08;14.98;;;6.90;99.90;;;;;;5046223;28;20066;-57
2023/02/20 08:23:59;;;;;;;19.83;14.50;;;6.80;99.90;;;;;;5040698;28;20401;-58
2023/02/20 08:26:25;;;;;;;25.25;16.02;;;6.90;99.90;;;;;;5048310;28;20521;-60
2023/02/20 08:28:51;;;;;;;27.23;15.85;;;6.90;99.90;;;;;;5039276;28;20048;-61
2023/02/20 08:31:17;;;;;;;26.08;15.75;;;7.00;99.90;;;;;;5048393;28;20025;-61
2023/02/20 08:33:43;;;;;;;19.73;15.40;;;7.00;99.90;;;;;;5038463;28;20056;-61
2023/02/20 08:36:09;;;;;;;23.05;15.18;;;7.00;99.90;;;;;;5038818;28;20075;-60
2023/02/20 08:38:36;;;;;;;23.17;16.45;;;7.00;99.90;;;;;;5046775;28;20120;-60
2023/02/20 08:41:06;;;;;;;22.58;14.63;;;7.10;99.90;;;;;;5040174;28;20036;-61
2023/02/20 08:43:33;;;;;;;23.75;15.00;;;7.10;99.90;;;;;;5046278;28;20136;-58
2023/02/20 08:45:59;;;;;;;21.85;15.38;;;7.10;99.90;;;;;;5040650;28;20072;-59
2023/02/20 08:48:25;;;;;;;23.50;15.77;;;7.10;99.90;;;;;;5046881;28;20037;-58
2023/02/20 08:50:51;;;;;;;24.08;15.32;;;7.20;99.90;;;;;;5040290;28;20028;-58
2023/02/20 08:53:17;;;;;;;25.00;16.40;;;7.20;99.90;;;;;;5022356;28;20060;-57
2023/02/20 08:55:42;;;;;;;49.08;22.23;;;7.20;99.90;;;;;;5046189;28;20017;-60
2023/02/20 08:58:08;;;;;;;43.00;23.10;;;7.20;99.90;;;;;;5040223;28;20018;-61
2023/02/20 09:00:33;;;;;;;20.48;15.82;;;7.20;99.90;;;;;;5046957;28;20090;-61
2023/02/20 09:02:59;;;;;;;23.05;15.48;;;7.20;99.90;;;;;;5040235;28;20033;-58
2023/02/20 09:05:25;;;;;;;26.42;15.32;;;7.20;99.90;;;;;;5048202;28;20025;-61
2023/02/20 09:07:51;;;;;;;23.98;15.20;;;7.30;99.90;;;;;;5034569;28;20072;-61
2023/02/20 09:10:18;;;;;;;20.17;14.13;;;7.30;99.90;;;;;;5039824;28;20026;-60
2023/02/20 09:12:45;;;;;;;22.75;14.02;;;7.30;99.90;;;;;;5041549;28;20059;-60
2023/02/20 09:15:11;;;;;;;21.17;14.18;;;7.40;99.90;;;;;;5044692;28;20096;-59
2023/02/20 09:17:38;;;;;;;24.13;14.95;;;7.40;99.90;;;;;;5041901;28;20103;-60
2023/02/20 09:20:08;;;;;;;21.35;14.05;;;7.40;99.90;;;;;;5043386;28;20044;-59
2023/02/20 09:22:34;;;;;;;26.40;14.75;;;7.40;99.90;;;;;;5040033;28;20067;-60
2023/02/20 09:25:00;;;;;;;24.15;14.63;;;7.50;99.90;;;;;;5043076;28;20021;-59
2023/02/20 09:27:28;;;;;;;26.88;14.32;;;7.50;99.90;;;;;;5041905;28;20029;-58
2023/02/20 09:29:54;;;;;;;24.25;13.23;;;7.50;99.90;;;;;;5042720;28;20021;-61
2023/02/20 09:32:19;;;;;;;21.38;13.90;;;7.60;99.90;;;;;;5042135;28;20033;-59
2023/02/20 09:34:46;;;;;;;24.17;13.45;;;7.60;99.90;;;;;;5039779;28;20037;-60
2023/02/20 09:37:12;;;;;;;19.40;13.82;;;7.60;99.90;;;;;;5042711;28;20434;-62
2023/02/20 09:39:37;;;;;;;20.70;13.55;;;7.70;99.90;;;;;;5040820;28;20029;-61
2023/02/20 09:42:14;;;;;;;22.42;13.00;;;7.70;99.90;;;;;;5042934;28;20047;-61
2023/02/20 09:44:49;;;;;;;23.88;14.20;;;7.70;99.90;;;;;;5041722;28;20104;-60
2023/02/20 09:47:25;;;;;;;23.25;13.85;;;7.70;99.90;;;;;;5042840;28;20399;-60
2023/02/20 09:49:56;;;;;;;18.63;12.35;;;7.70;99.90;;;;;;5032202;28;20074;-61
2023/02/20 09:52:22;;;;;;;25.70;13.55;;;7.80;99.90;;;;;;5042930;28;20032;-60
2023/02/20 09:55:00;;;;;;;23.20;13.65;;;7.80;99.90;;;;;;5040716;28;20533;-61
2023/02/20 09:57:28;;;;;;;21.73;12.82;;;7.80;99.90;;;;;;5042635;28;20013;-62
2023/02/20 10:00:02;;;;;;;23.42;12.77;;;7.80;99.90;;;;;;5041795;28;20017;-61
2023/02/20 10:02:37;;;;;;;20.17;13.23;;;7.80;99.90;;;;;;5041819;28;20051;-61
2023/02/20 10:05:12;;;;;;;20.85;11.45;;;7.90;99.90;;;;;;5044064;28;20027;-57
2023/02/20 10:07:40;;;;;;;21.50;12.33;;;7.90;99.90;;;;;;5038408;28;20182;-62
2023/02/20 10:10:40;;;;;;;20.63;12.70;;;7.90;99.90;;;;;;5037163;28;20025;-60
2023/02/20 10:13:12;;;;;;;17.52;10.55;;;7.90;99.90;;;;;;5032308;28;20039;-60
2023/02/20 10:16:01;;;;;;;19.42;11.98;;;8.00;99.90;;;;;;5041544;28;20028;-61
2023/02/20 10:18:47;;;;;;;23.05;11.75;;;8.00;99.90;;;;;;5041767;28;20067;-61
2023/02/20 10:21:39;;;;;;;15.35;11.73;;;8.00;99.90;;;;;;5038402;28;20055;-59
2023/02/20 10:24:13;;;;;;;14.85;10.07;;;8.10;99.90;;;;;;5037039;28;20091;-59
2023/02/20 10:26:45;;;;;;;17.77;9.80;;;8.10;99.90;;;;;;5044025;28;20035;-60
2023/02/20 10:29:21;;;;;;;13.00;9.80;;;8.10;99.90;;;;;;5038206;28;20021;-59
2023/02/20 10:32:06;;;;;;;22.45;10.57;;;8.10;99.90;;;;;;5046380;28;20029;-61
2023/02/20 10:34:39;;;;;;;16.15;9.82;;;8.20;99.90;;;;;;5029267;28;20037;-58
2023/02/20 10:37:13;;;;;;;15.00;9.00;;;8.10;99.90;;;;;;5041082;28;20025;-60
2023/02/20 10:39:49;;;;;;;14.73;8.82;;;8.20;99.90;;;;;;5038227;28;20024;-59
2023/02/20 10:42:24;;;;;;;18.75;9.25;;;8.20;99.90;;;;;;5041491;28;20100;-60
2023/02/20 10:45:00;;;;;;;17.05;8.55;;;8.20;99.90;;;;;;5041897;28;20029;-61
2023/02/20 10:47:41;;;;;;;;;;;8.30;99.90;;;;;;5041428;28;20151;-61
2023/02/20 10:50:12;;;;;;;12.65;7.55;;;8.30;99.90;;;;;;5050570;28;19916;-60
2023/02/20 10:52:59;;;;;;;13.35;7.40;;;8.30;99.90;;;;;;5039923;28;20403;-59
2023/02/20 10:55:53;;;;;;;11.93;7.10;;;8.40;99.90;;;;;;5043342;28;20049;-59
2023/02/20 10:58:22;;;;;;;12.60;6.60;;;8.40;99.90;;;;;;5048848;28;20183;-61
2023/02/20 11:00:57;;;;;;;16.58;7.20;;;8.40;99.90;;;;;;5045127;28;20025;-60
2023/02/20 11:03:46;;;;;;;11.98;6.35;;;8.50;99.90;;;;;;5037691;28;20036;-61
2023/02/20 11:06:16;;;;;;;14.23;6.75;;;8.50;99.90;;;;;;5035081;28;20043;-61
2023/02/20 11:08:42;;;;;;;8.95;5.70;;;8.50;99.90;;;;;;5039922;28;20403;-60
2023/02/20 11:11:30;;;;;;;11.68;6.55;;;8.60;99.90;;;;;;5041223;28;20033;-61
2023/02/20 11:14:00;;;;;;;10.98;5.47;;;8.60;99.90;;;;;;5040229;28;20021;-61
2023/02/20 11:16:40;;;;;;;10.95;6.18;;;8.70;99.90;;;;;;5040906;28;20166;-60
2023/02/20 11:19:13;;;;;;;9.90;5.57;;;8.70;99.90;;;;;;5037055;28;20484;-58
2023/02/20 11:21:44;;;;;;;11.35;5.05;;;8.70;99.90;;;;;;5037513;28;20182;-58
2023/02/20 11:24:18;;;;;;;9.13;4.55;;;8.70;99.90;;;;;;5049078;28;20045;-61
2023/02/20 11:26:46;;;;;;;11.82;5.03;;;8.80;99.90;;;;;;5043921;28;20107;-61
2023/02/20 11:29:15;;;;;;;8.25;4.28;;;8.80;99.90;;;;;;5031679;28;20030;-61
2023/02/20 11:31:42;;;;;;;10.25;4.78;;;8.80;99.90;;;;;;5045361;28;20090;-62
2023/02/20 11:34:16;;;;;;;7.70;4.55;;;8.80;99.90;;;;;;5035583;28;20119;-63
2023/02/20 11:36:51;;;;;;;11.27;4.93;;;8.90;99.90;;;;;;5031108;28;20798;-67
2023/02/20 11:39:27;;;;;;;9.00;4.20;;;8.90;99.90;;;;;;5055087;28;20025;-62
2023/02/20 11:42:14;;;;;;;12.73;4.43;;;8.90;99.90;;;;;;5026886;28;20017;-61
2023/02/20 11:44:40;;;;;;;12.50;4.55;;;8.90;99.90;;;;;;5039590;28;20256;-59
2023/02/20 11:47:15;;;;;;;6.95;3.30;;;8.90;99.90;;;;;;5041083;28;20500;-60
2023/02/20 11:49:41;;;;;;;6.20;3.70;;;9.00;99.90;;;;;;5040541;28;20036;-60
2023/02/20 11:52:18;;;;;;;11.15;4.25;;;9.00;99.90;;;;;;5039520;28;20029;-61
2023/02/20 11:54:45;;;;;;;10.18;4.45;;;9.00;99.90;;;;;;5038650;28;20108;-60
2023/02/20 11:57:14;;;;;;;10.45;4.13;;;9.10;99.90;;;;;;5040830;28;20560;-60
2023/02/20 11:59:44;;;;;;;5.35;3.50;;;9.00;99.90;;;;;;5039578;28;20237;-60
2023/02/20 12:02:16;;;;;;;11.18;3.95;;;9.10;99.90;;;;;;5040862;28;20024;-59
2023/02/20 12:04:44;;;;;;;10.02;3.95;;;9.10;99.90;;;;;;5040363;28;20037;-59
2023/02/20 12:07:32;;;;;;;5.20;2.97;;;9.10;99.90;;;;;;5040738;28;20055;-60
2023/02/20 12:10:24;;;;;;;14.55;3.70;;;9.20;99.90;;;;;;5034728;28;20112;-61
2023/02/20 12:12:51;;;;;;;6.82;3.00;;;9.20;99.90;;;;;;5021287;28;20115;-61
2023/02/20 12:15:19;;;;;;;10.18;3.30;;;9.30;99.90;;;;;;5046281;28;20112;-59
2023/02/20 12:18:16;;;;;;;9.68;4.05;;;9.20;99.90;;;;;;5039815;28;20025;-58
2023/02/20 12:20:53;;;;;;;5.90;3.55;;;9.20;99.90;;;;;;5038289;28;20048;-58
2023/02/20 12:23:48;;;;;;;5.32;2.83;;;9.20;99.90;;;;;;5040953;28;20028;-59
2023/02/20 12:26:43;;;;;;;6.90;3.20;;;9.20;99.90;;;;;;5037806;28;20068;-61
2023/02/20 12:29:48;;;;;;;4.72;2.55;;;9.20;99.90;;;;;;5033032;28;20077;-59
2023/02/20 12:32:35;;;;;;;10.45;2.80;;;9.20;99.90;;;;;;5029605;28;20044;-61
2023/02/20 12:35:20;;;;;;;6.10;2.55;;;9.30;99.90;;;;;;5040371;28;20531;-60
2023/02/20 12:37:51;;;;;;;6.47;3.00;;;9.30;99.90;;;;;;5037983;28;20510;-61
2023/02/20 12:40:26;;;;;;;5.55;2.33;;;9.30;99.90;;;;;;5037710;28;20063;-58
2023/02/20 12:43:15;;;;;;;8.52;3.55;;;9.30;99.90;;;;;;5042255;28;20033;-60
2023/02/20 12:46:09;;;;;;;7.50;2.60;;;9.30;99.90;;;;;;5036263;28;20029;-58
2023/02/20 12:48:53;;;;;;;11.25;3.80;;;9.30;99.90;;;;;;5048515;28;20383;-60
2023/02/20 12:51:32;;;;;;;5.38;2.50;;;9.30;99.90;;;;;;5036228;28;20464;-61
2023/02/20 12:54:31;;;;;;;5.50;2.60;;;9.30;99.90;;;;;;5045333;28;20048;-59
2023/02/20 12:57:25;;;;;;;10.68;2.60;;;9.30;99.90;;;;;;5032022;28;20051;-58
2023/02/20 13:00:22;;;;;;;8.40;3.33;;;9.30;99.90;;;;;;5035480;28;20017;-59
2023/02/20 13:02:54;;;;;;;6.70;2.53;;;9.30;99.90;;;;;;5038851;28;20151;-58
2023/02/20 13:05:26;;;;;;;7.80;3.53;;;9.30;99.90;;;;;;5032324;28;20025;-56
2023/02/20 13:08:14;;;;;;;5.63;2.97;;;9.40;99.90;;;;;;5028411;28;20033;-57
2023/02/20 13:10:55;;;;;;;7.07;3.00;;;9.30;99.90;;;;;;5041628;28;20021;-60
2023/02/20 13:13:22;;;;;;;11.50;2.80;;;9.40;99.90;;;;;;5043621;28;20029;-60
2023/02/20 13:16:06;;;;;;;5.28;3.00;;;9.40;99.90;;;;;;5046735;28;20083;-59
2023/02/20 13:18:50;;;;;;;7.75;3.15;;;9.40;99.90;;;;;;5042775;28;20503;-60
2023/02/20 13:21:28;;;;;;;6.28;3.40;;;9.40;99.90;;;;;;5044925;28;20108;-58
2023/02/20 13:24:31;;;;;;;4.82;2.53;;;9.40;99.90;;;;;;5036672;28;20021;-60
2023/02/20 13:27:05;;;;;;;10.43;3.25;;;9.40;99.90;;;;;;5033487;28;20065;-59